createdAt,value
2022-10-11T00:01:14.014Z,9.79
2022-10-11T00:03:42.763Z,9.88
2022-10-11T00:06:11.470Z,9.85
2022-10-11T00:08:40.021Z,9.83
2022-10-11T00:11:10.523Z,9.81
2022-10-11T00:13:39.142Z,9.45
2022-10-11T00:16:11.693Z,9.59
2022-10-11T00:18:40.983Z,9.57
2022-10-11T00:21:15.109Z,9.88
2022-10-11T00:23:44.494Z,9.62
2022-10-11T00:26:14.988Z,9.73
2022-10-11T00:28:43.751Z,9.62
2022-10-11T00:31:16.665Z,9.33
2022-10-11T00:33:46.061Z,9.39
2022-10-11T00:36:17.353Z,9.69
2022-10-11T00:38:47.013Z,9.62
2022-10-11T00:41:17.547Z,9.50
2022-10-11T00:43:47.014Z,9.38
2022-10-11T00:46:18.503Z,9.46
2022-10-11T00:49:19.928Z,9.50
2022-10-11T00:51:56.283Z,9.76
2022-10-11T00:54:31.021Z,9.65
2022-10-11T00:57:07.691Z,9.59
2022-10-11T00:59:43.381Z,9.44
2022-10-11T01:02:15.060Z,9.49
2022-10-11T01:04:45.104Z,9.55
2022-10-11T01:07:14.193Z,9.35
2022-10-11T01:09:43.692Z,9.54
2022-10-11T01:12:27.624Z,9.50
2022-10-11T01:15:53.396Z,9.41
2022-10-11T01:18:49.651Z,9.05
2022-10-11T01:21:43.327Z,8.84
2022-10-11T01:25:12.625Z,8.99
2022-10-11T01:28:08.802Z,9.16
2022-10-11T01:30:39.412Z,9.29
2022-10-11T01:33:25.818Z,9.18
2022-10-11T01:36:00.281Z,9.08
2022-10-11T01:38:49.765Z,9.22
2022-10-11T01:41:31.972Z,9.19
2022-10-11T01:44:04.711Z,9.16
2022-10-11T01:46:35.141Z,9.04
2022-10-11T01:49:05.649Z,9.16
2022-10-11T01:51:47.347Z,9.09
2022-10-11T01:55:10.357Z,9.23
2022-10-11T01:58:07.305Z,8.94
2022-10-11T02:01:14.596Z,8.90
2022-10-11T02:04:40.983Z,8.48
2022-10-11T02:07:57.695Z,8.47
2022-10-11T02:11:01.895Z,8.60
2022-10-11T02:13:59.027Z,8.59
2022-10-11T02:16:42.837Z,8.68
2022-10-11T02:19:19.030Z,8.63
2022-10-11T02:21:58.313Z,8.80
2022-10-11T02:24:40.234Z,8.66
2022-10-11T02:27:12.285Z,8.87
2022-10-11T02:29:45.199Z,8.98
2022-10-11T02:32:17.550Z,8.78
2022-10-11T02:35:00.988Z,8.64
2022-10-11T02:37:52.400Z,8.75
2022-10-11T02:40:32.816Z,8.86
2022-10-11T02:43:13.334Z,8.79
2022-10-11T02:45:58.302Z,8.93
2022-10-11T02:48:29.537Z,8.95
2022-10-11T02:50:58.782Z,9.04
2022-10-11T02:53:28.798Z,9.05
2022-10-11T02:55:57.954Z,8.94
2022-10-11T02:58:27.419Z,8.94
2022-10-11T03:00:56.048Z,8.76
2022-10-11T03:03:24.648Z,9.00
2022-10-11T03:06:01.376Z,9.15
2022-10-11T03:08:29.467Z,9.24
2022-10-11T03:10:58.296Z,9.07
2022-10-11T03:13:27.120Z,9.15
2022-10-11T03:16:03.348Z,9.20
2022-10-11T03:18:32.600Z,9.43
2022-10-11T03:21:00.294Z,9.49
2022-10-11T03:23:29.053Z,9.45
2022-10-11T03:25:56.809Z,9.47
2022-10-11T03:28:25.470Z,9.36
2022-10-11T03:30:54.336Z,9.52
2022-10-11T03:33:23.061Z,9.56
2022-10-11T03:35:51.658Z,9.50
2022-10-11T03:38:23.385Z,9.43
2022-10-11T03:40:52.350Z,9.28
2022-10-11T03:43:21.758Z,9.17
2022-10-11T03:45:50.348Z,9.09
2022-10-11T03:48:19.816Z,9.02
2022-10-11T03:50:48.607Z,9.36
2022-10-11T03:53:17.258Z,9.34
2022-10-11T03:55:46.061Z,9.35
2022-10-11T03:58:14.648Z,9.13
2022-10-11T04:00:43.236Z,9.28
2022-10-11T04:03:12.137Z,9.32
2022-10-11T04:05:40.769Z,9.23
2022-10-11T04:08:12.081Z,9.01
2022-10-11T04:10:41.637Z,9.10
2022-10-11T04:13:12.192Z,9.10
2022-10-11T04:15:41.600Z,9.20
2022-10-11T04:18:10.955Z,9.24
2022-10-11T04:20:39.057Z,9.32
2022-10-11T04:23:08.156Z,9.41
2022-10-11T04:25:39.951Z,9.52
2022-10-11T04:28:09.434Z,9.61
2022-10-11T04:30:38.056Z,9.64
2022-10-11T04:33:06.672Z,9.51
2022-10-11T04:35:35.256Z,9.61
2022-10-11T04:38:03.900Z,9.66
2022-10-11T04:40:31.897Z,9.60
2022-10-11T04:43:00.715Z,9.76
2022-10-11T04:45:29.423Z,9.67
2022-10-11T04:47:58.614Z,9.75
2022-10-11T04:50:27.415Z,9.85
2022-10-11T04:52:56.014Z,9.78
2022-10-11T04:55:24.739Z,9.96
2022-10-11T04:57:54.253Z,10.00
2022-10-11T05:00:23.862Z,10.01
2022-10-11T05:02:54.009Z,10.01
2022-10-11T05:05:23.473Z,10.03
2022-10-11T05:07:52.141Z,10.02
2022-10-11T05:10:21.687Z,10.01
2022-10-11T05:12:50.348Z,10.19
2022-10-11T05:15:20.143Z,9.94
2022-10-11T05:17:48.834Z,9.85
2022-10-11T05:20:17.754Z,10.18
2022-10-11T05:22:45.513Z,10.20
2022-10-11T05:25:14.144Z,10.28
2022-10-11T05:27:43.564Z,10.09
2022-10-11T05:30:12.621Z,10.45
2022-10-11T05:32:42.055Z,10.48
2022-10-11T05:35:10.698Z,10.30
2022-10-11T05:37:39.328Z,10.26
2022-10-11T05:40:09.260Z,10.21
2022-10-11T05:42:38.770Z,10.02
2022-10-11T05:45:08.502Z,10.06
2022-10-11T05:47:37.133Z,10.20
2022-10-11T05:50:06.524Z,10.36
2022-10-11T05:52:35.100Z,10.39
2022-10-11T05:55:04.392Z,10.55
2022-10-11T05:57:32.986Z,10.58
2022-10-11T06:00:02.697Z,10.74
2022-10-11T06:02:31.305Z,10.86
2022-10-11T06:04:59.961Z,10.86
2022-10-11T06:07:28.493Z,10.84
2022-10-11T06:09:57.149Z,10.74
2022-10-11T06:12:25.837Z,10.84
2022-10-11T06:14:55.484Z,10.94
2022-10-11T06:17:24.217Z,10.87
2022-10-11T06:19:52.787Z,10.87
2022-10-11T06:22:21.424Z,10.90
2022-10-11T06:24:50.065Z,10.95
2022-10-11T06:27:18.675Z,10.92
2022-10-11T06:29:47.307Z,11.01
2022-10-11T06:32:16.285Z,11.09
2022-10-11T06:34:45.699Z,11.21
2022-10-11T06:37:15.458Z,11.34
2022-10-11T06:39:44.113Z,11.39
2022-10-11T06:42:13.051Z,11.73
2022-10-11T06:44:42.641Z,13.97
2022-10-11T06:47:11.352Z,15.91
2022-10-11T06:49:39.970Z,16.18
2022-10-11T06:52:10.229Z,15.54
2022-10-11T06:54:43.869Z,14.42
2022-10-11T06:57:14.125Z,13.69
2022-10-11T06:59:42.676Z,13.62
2022-10-11T07:02:12.062Z,13.59
2022-10-11T07:04:40.589Z,13.71
2022-10-11T07:07:09.074Z,13.47
2022-10-11T07:09:37.919Z,13.68
2022-10-11T07:12:07.569Z,14.10
2022-10-11T07:14:36.162Z,14.31
2022-10-11T07:17:05.635Z,14.28
2022-10-11T07:19:34.324Z,14.55
2022-10-11T07:22:02.918Z,14.69
2022-10-11T07:24:31.497Z,14.65
2022-10-11T07:27:00.842Z,14.81
2022-10-11T07:29:29.272Z,14.81
2022-10-11T07:31:57.930Z,14.80
2022-10-11T07:34:26.599Z,15.64
2022-10-11T07:36:55.305Z,15.53
2022-10-11T07:39:23.858Z,15.57
2022-10-11T07:41:53.219Z,15.36
2022-10-11T07:44:21.990Z,15.49
2022-10-11T07:46:51.417Z,15.22
2022-10-11T07:49:19.977Z,15.35
2022-10-11T07:51:48.486Z,15.92
2022-10-11T07:54:17.007Z,15.87
2022-10-11T07:56:45.594Z,16.28
2022-10-11T07:59:14.959Z,15.80
2022-10-11T08:01:44.442Z,16.33
2022-10-11T08:04:13.142Z,15.70
2022-10-11T08:06:42.468Z,15.33
2022-10-11T08:09:12.263Z,15.28
2022-10-11T08:11:40.810Z,15.62
2022-10-11T08:14:11.672Z,16.10
2022-10-11T08:16:40.870Z,16.24
2022-10-11T08:19:10.822Z,15.93
2022-10-11T08:21:39.386Z,16.72
2022-10-11T08:24:08.279Z,16.75
2022-10-11T08:26:36.998Z,16.93
2022-10-11T08:29:06.935Z,16.92
2022-10-11T08:31:36.137Z,17.74
2022-10-11T08:34:05.541Z,17.34
2022-10-11T08:36:34.191Z,17.29
2022-10-11T08:39:02.784Z,17.71
2022-10-11T08:41:53.655Z,17.15
2022-10-11T08:45:08.990Z,17.14
2022-10-11T08:47:44.919Z,17.61
2022-10-11T08:50:22.884Z,17.04
2022-10-11T08:53:04.921Z,17.49
2022-10-11T08:55:51.641Z,17.58
2022-10-11T08:58:39.556Z,18.02
2022-10-11T09:01:21.101Z,18.05
2022-10-11T09:03:50.945Z,18.25
2022-10-11T09:07:04.708Z,17.91
2022-10-11T09:10:13.809Z,17.89
2022-10-11T09:13:18.857Z,17.94
2022-10-11T09:16:09.504Z,17.37
2022-10-11T09:19:15.857Z,17.71
2022-10-11T09:22:26.824Z,17.29
2022-10-11T09:25:19.568Z,17.60
2022-10-11T09:28:40.959Z,17.70
2022-10-11T09:31:12.286Z,18.28
2022-10-11T09:33:52.736Z,17.81
2022-10-11T09:36:47.337Z,17.93
2022-10-11T09:39:35.780Z,17.89
2022-10-11T09:42:08.674Z,18.21
2022-10-11T09:44:49.087Z,18.23
2022-10-11T09:47:36.835Z,18.57
2022-10-11T09:50:25.881Z,18.74
2022-10-11T09:53:00.138Z,19.05
2022-10-11T09:55:54.478Z,18.47
2022-10-11T09:58:30.243Z,18.73
2022-10-11T10:01:10.415Z,18.56
2022-10-11T10:03:44.502Z,18.59
2022-10-11T10:06:29.672Z,18.47
2022-10-11T10:09:31.134Z,18.35
2022-10-11T10:11:59.714Z,18.47
2022-10-11T10:14:31.269Z,18.73
2022-10-11T10:17:18.887Z,18.68
2022-10-11T10:19:54.558Z,18.20
2022-10-11T10:22:29.976Z,18.03
2022-10-11T10:25:03.390Z,18.28
2022-10-11T10:27:33.549Z,18.09
2022-10-11T10:30:07.851Z,18.14
2022-10-11T10:33:05.018Z,18.12
2022-10-11T10:35:55.579Z,18.48
2022-10-11T10:38:48.656Z,18.50
2022-10-11T10:41:20.796Z,18.59
2022-10-11T10:43:57.675Z,18.74
2022-10-11T10:46:54.158Z,18.73
2022-10-11T10:53:43.496Z,18.55
2022-10-11T10:56:45.687Z,18.29
2022-10-11T10:59:45.397Z,18.01
2022-10-11T11:02:50.069Z,18.11
2022-10-11T11:05:58.979Z,18.34
2022-10-11T11:09:15.408Z,18.55
2022-10-11T11:12:01.481Z,18.26
2022-10-11T11:14:59.658Z,18.09
2022-10-11T11:18:10.276Z,18.58
2022-10-11T11:21:20.391Z,19.20
2022-10-11T11:24:06.779Z,19.77
2022-10-11T11:27:33.745Z,19.56
2022-10-11T11:30:12.783Z,19.66
2022-10-11T11:32:52.517Z,20.01
2022-10-11T11:35:46.283Z,19.57
2022-10-11T11:38:25.923Z,19.74
2022-10-11T11:41:06.232Z,19.88
2022-10-11T11:43:45.539Z,19.63
2022-10-11T11:46:24.842Z,20.16
2022-10-11T11:49:03.867Z,20.37
2022-10-11T11:51:43.372Z,20.57
2022-10-11T11:55:01.487Z,20.20
2022-10-11T11:58:15.668Z,20.10
2022-10-11T12:01:26.489Z,20.21
2022-10-11T12:04:45.726Z,19.59
2022-10-11T12:07:22.750Z,19.65
2022-10-11T12:10:25.448Z,19.97
2022-10-11T12:13:32.166Z,19.76
2022-10-11T12:16:13.260Z,19.70
2022-10-11T12:19:02.039Z,19.25
2022-10-11T12:21:42.087Z,19.16
2022-10-11T12:24:24.650Z,19.02
2022-10-11T12:26:59.693Z,18.76
2022-10-11T12:29:49.557Z,18.87
2022-10-11T12:32:38.792Z,18.81
2022-10-11T12:35:32.295Z,18.65
2022-10-11T12:38:40.247Z,18.68
2022-10-11T12:41:14.624Z,18.63
2022-10-11T12:43:48.962Z,18.72
2022-10-11T12:46:29.809Z,18.89
2022-10-11T12:49:13.262Z,18.97
2022-10-11T12:52:01.760Z,19.29
2022-10-11T12:54:48.216Z,19.46
2022-10-11T12:58:19.253Z,19.53
2022-10-11T13:00:56.426Z,19.11
2022-10-11T13:03:41.698Z,18.90
2022-10-11T13:06:14.940Z,18.89
2022-10-11T13:08:54.876Z,18.95
2022-10-11T13:11:39.391Z,18.82
2022-10-11T13:14:18.231Z,18.65
2022-10-11T13:17:04.109Z,19.00
2022-10-11T13:19:37.388Z,19.01
2022-10-11T13:22:22.079Z,19.34
2022-10-11T13:24:50.965Z,19.66
2022-10-11T13:27:27.296Z,19.80
2022-10-11T13:30:02.395Z,19.44
2022-10-11T13:32:32.900Z,19.61
2022-10-11T13:35:19.705Z,19.44
2022-10-11T13:37:52.117Z,19.70
2022-10-11T13:40:23.160Z,19.86
2022-10-11T13:42:54.195Z,19.81
2022-10-11T13:45:27.695Z,19.80
2022-10-11T13:47:56.918Z,19.90
2022-10-11T13:50:35.501Z,19.95
2022-10-11T13:53:10.121Z,19.81
2022-10-11T13:56:04.390Z,19.60
2022-10-11T13:59:00.772Z,19.29
2022-10-11T14:01:40.779Z,19.42
2022-10-11T14:04:18.606Z,19.34
2022-10-11T14:07:02.491Z,19.47
2022-10-11T14:09:38.180Z,19.41
2022-10-11T14:12:40.505Z,19.40
2022-10-11T14:15:57.903Z,19.28
2022-10-11T14:18:51.923Z,19.11
2022-10-11T14:21:35.748Z,19.19
2022-10-11T14:24:12.318Z,19.24
2022-10-11T14:26:56.450Z,19.22
2022-10-11T14:29:39.052Z,19.12
2022-10-11T14:32:17.945Z,18.99
2022-10-11T14:34:48.974Z,18.83
2022-10-11T14:37:19.657Z,18.92
2022-10-11T14:39:50.359Z,18.82
2022-10-11T14:42:19.711Z,18.80
2022-10-11T14:44:48.424Z,18.70
2022-10-11T14:47:18.365Z,18.64
2022-10-11T14:49:47.020Z,18.65
2022-10-11T14:52:15.604Z,18.65
2022-10-11T14:54:44.225Z,18.68
2022-10-11T14:57:13.771Z,18.54
2022-10-11T14:59:43.148Z,18.62
2022-10-11T15:02:12.549Z,18.51
2022-10-11T15:04:41.136Z,18.57
2022-10-11T15:07:13.438Z,18.39
2022-10-11T15:09:42.343Z,18.32
2022-10-11T15:12:10.907Z,17.98
2022-10-11T15:14:39.424Z,18.07
2022-10-11T15:17:08.260Z,17.77
2022-10-11T15:19:37.042Z,17.54
2022-10-11T15:22:06.386Z,17.53
2022-10-11T15:24:34.971Z,17.37
2022-10-11T15:27:04.509Z,17.41
2022-10-11T15:29:33.127Z,17.38
2022-10-11T15:32:01.739Z,17.07
2022-10-11T15:34:30.611Z,17.10
2022-10-11T15:36:59.398Z,16.69
2022-10-11T15:39:32.755Z,16.67
2022-10-11T15:42:01.398Z,16.34
2022-10-11T15:44:29.989Z,16.20
2022-10-11T15:46:58.594Z,16.14
2022-10-11T15:49:28.030Z,16.01
2022-10-11T15:51:56.616Z,15.76
2022-10-11T15:54:26.069Z,15.77
2022-10-11T15:56:54.641Z,15.70
2022-10-11T15:59:24.061Z,15.65
2022-10-11T16:01:53.007Z,15.78
2022-10-11T16:04:23.248Z,15.70
2022-10-11T16:06:51.977Z,15.55
2022-10-11T16:09:29.051Z,15.49
2022-10-11T16:11:59.228Z,15.47
2022-10-11T16:14:27.992Z,15.30
2022-10-11T16:17:00.166Z,15.17
2022-10-11T16:19:28.840Z,15.30
2022-10-11T16:21:58.204Z,15.09
2022-10-11T16:24:27.473Z,15.10
2022-10-11T16:29:34.801Z,14.94
2022-10-11T16:32:03.400Z,14.77
2022-10-11T16:34:36.641Z,14.60
2022-10-11T16:37:05.271Z,14.97
2022-10-11T16:39:35.334Z,14.78
2022-10-11T16:42:03.114Z,14.62
2022-10-11T16:44:32.955Z,14.48
2022-10-11T16:47:01.676Z,14.35
2022-10-11T16:49:44.567Z,14.24
2022-10-11T16:52:21.745Z,14.38
2022-10-11T16:54:58.935Z,14.27
2022-10-11T17:03:18.460Z,14.15
2022-10-11T17:05:48.283Z,13.74
2022-10-11T17:08:20.030Z,13.87
2022-10-11T17:10:57.890Z,13.77
2022-10-11T17:13:26.072Z,13.52
2022-10-11T17:15:55.662Z,13.34
2022-10-11T17:18:27.217Z,13.32
2022-10-11T17:21:08.915Z,13.28
2022-10-11T17:23:41.831Z,13.09
2022-10-11T17:26:24.999Z,13.07
2022-10-11T17:28:59.017Z,13.31
2022-10-11T17:31:32.948Z,13.21
2022-10-11T17:34:02.551Z,13.02
2022-10-11T17:36:34.906Z,13.17
2022-10-11T17:39:15.208Z,13.28
2022-10-11T17:44:19.303Z,13.12
2022-10-11T17:46:49.078Z,12.84
2022-10-11T17:51:59.405Z,13.01
2022-10-11T17:54:27.390Z,13.05
2022-10-11T17:56:56.924Z,12.86
2022-10-11T17:59:27.782Z,12.97
2022-10-11T18:01:59.576Z,12.50
2022-10-11T18:04:30.150Z,12.70
2022-10-11T18:06:59.742Z,12.59
2022-10-11T18:09:27.660Z,12.43
2022-10-11T18:11:55.538Z,12.65
2022-10-11T18:14:25.119Z,12.57
2022-10-11T18:16:52.980Z,12.49
2022-10-11T18:19:24.382Z,12.36
2022-10-11T18:21:55.760Z,12.47
2022-10-11T18:24:27.304Z,12.86
2022-10-11T18:26:56.853Z,12.93
2022-10-11T18:29:26.597Z,13.02
2022-10-11T18:31:56.325Z,13.15
2022-10-11T18:34:25.857Z,13.07
2022-10-11T18:36:55.511Z,13.11
2022-10-11T18:39:23.362Z,12.92
2022-10-11T18:41:52.055Z,12.90
2022-10-11T18:44:21.687Z,13.15
2022-10-11T18:46:51.290Z,13.02
2022-10-11T18:49:20.713Z,13.06
2022-10-11T18:51:49.270Z,13.17
2022-10-11T18:54:21.200Z,13.18
2022-10-11T18:56:51.130Z,13.23
2022-10-11T18:59:20.361Z,13.31
2022-10-11T19:01:52.581Z,13.24
2022-10-11T19:04:21.152Z,13.35
2022-10-11T19:06:49.938Z,13.37
2022-10-11T19:09:26.156Z,13.40
2022-10-11T19:11:56.781Z,13.30
2022-10-11T19:14:30.241Z,13.43
2022-10-11T19:16:58.889Z,13.45
2022-10-11T19:19:29.797Z,13.34
2022-10-11T19:21:57.966Z,13.33
2022-10-11T19:24:29.196Z,13.55
2022-10-11T19:27:02.494Z,13.56
2022-10-11T19:29:32.561Z,13.48
2022-10-11T19:32:03.786Z,13.52
2022-10-11T19:34:33.362Z,13.43
2022-10-11T19:37:01.402Z,13.47
2022-10-11T19:39:32.636Z,13.58
2022-10-11T19:42:01.321Z,13.56
2022-10-11T19:44:34.469Z,13.48
